sensor_id;sensor_type;location;lat;lon;timestamp;temperature;humidity
21563;DHT22;10942;47.894;11.424;2023-05-09T00:02:39;11.20;99.90
21563;DHT22;10942;47.894;11.424;2023-05-09T00:05:06;11.10;99.90
21563;DHT22;10942;47.894;11.424;2023-05-09T00:07:35;11.10;99.90
21563;DHT22;10942;47.894;11.424;2023-05-09T00:22:16;10.80;99.90
21563;DHT22;10942;47.894;11.424;2023-05-09T00:27:08;10.70;99.90
21563;DHT22;10942;47.894;11.424;2023-05-09T00:29:34;10.60;99.90
21563;DHT22;10942;47.894;11.424;2023-05-09T00:32:01;10.50;99.90
21563;DHT22;10942;47.894;11.424;2023-05-09T00:34:27;10.60;99.90
21563;DHT22;10942;47.894;11.424;2023-05-09T00:36:52;10.50;99.90
21563;DHT22;10942;47.894;11.424;2023-05-09T00:39:18;10.50;99.90
21563;DHT22;10942;47.894;11.424;2023-05-09T00:41:44;10.50;99.90
21563;DHT22;10942;47.894;11.424;2023-05-09T00:44:10;10.50;99.90
21563;DHT22;10942;47.894;11.424;2023-05-09T00:49:02;10.40;99.90
21563;DHT22;10942;47.894;11.424;2023-05-09T00:51:28;10.40;99.90
21563;DHT22;10942;47.894;11.424;2023-05-09T00:53:55;10.40;99.90
21563;DHT22;10942;47.894;11.424;2023-05-09T00:56:21;10.30;99.90
21563;DHT22;10942;47.894;11.424;2023-05-09T00:58:47;10.30;99.90
21563;DHT22;10942;47.894;11.424;2023-05-09T01:01:13;10.30;99.90
21563;DHT22;10942;47.894;11.424;2023-05-09T01:03:39;10.30;99.90
21563;DHT22;10942;47.894;11.424;2023-05-09T01:06:43;10.30;99.90
21563;DHT22;10942;47.894;11.424;2023-05-09T01:09:19;10.20;99.90
21563;DHT22;10942;47.894;11.424;2023-05-09T01:14:37;10.20;99.90
21563;DHT22;10942;47.894;11.424;2023-05-09T01:17:30;10.20;99.90
21563;DHT22;10942;47.894;11.424;2023-05-09T01:22:35;10.10;99.90
21563;DHT22;10942;47.894;11.424;2023-05-09T01:28:06;10.10;99.90
21563;DHT22;10942;47.894;11.424;2023-05-09T01:30:33;10.00;99.90
21563;DHT22;10942;47.894;11.424;2023-05-09T01:33:05;10.00;99.90
21563;DHT22;10942;47.894;11.424;2023-05-09T01:35:32;10.00;99.90
21563;DHT22;10942;47.894;11.424;2023-05-09T01:38:01;10.00;99.90
21563;DHT22;10942;47.894;11.424;2023-05-09T01:40:30;9.90;99.90
21563;DHT22;10942;47.894;11.424;2023-05-09T01:43:02;9.90;99.90
21563;DHT22;10942;47.894;11.424;2023-05-09T01:45:30;9.90;99.90
21563;DHT22;10942;47.894;11.424;2023-05-09T01:47:57;9.90;99.90
21563;DHT22;10942;47.894;11.424;2023-05-09T02:17:17;9.60;99.90
21563;DHT22;10942;47.894;11.424;2023-05-09T02:19:43;9.60;99.90
21563;DHT22;10942;47.894;11.424;2023-05-09T02:22:11;9.50;99.90
21563;DHT22;10942;47.894;11.424;2023-05-09T02:27:03;9.50;99.90
21563;DHT22;10942;47.894;11.424;2023-05-09T02:29:36;9.40;99.90
21563;DHT22;10942;47.894;11.424;2023-05-09T02:32:10;9.40;99.90
21563;DHT22;10942;47.894;11.424;2023-05-09T02:34:36;9.40;99.90
21563;DHT22;10942;47.894;11.424;2023-05-09T02:39:29;9.30;99.90
21563;DHT22;10942;47.894;11.424;2023-05-09T02:44:21;9.30;99.90
21563;DHT22;10942;47.894;11.424;2023-05-09T02:46:47;9.30;99.90
21563;DHT22;10942;47.894;11.424;2023-05-09T02:49:13;9.30;99.90
21563;DHT22;10942;47.894;11.424;2023-05-09T02:51:39;9.20;99.90
21563;DHT22;10942;47.894;11.424;2023-05-09T02:54:05;9.30;99.90
21563;DHT22;10942;47.894;11.424;2023-05-09T02:56:30;9.20;99.90
21563;DHT22;10942;47.894;11.424;2023-05-09T02:58:56;9.30;99.90
21563;DHT22;10942;47.894;11.424;2023-05-09T03:01:22;9.30;99.90
21563;DHT22;10942;47.894;11.424;2023-05-09T03:03:48;9.30;99.90
21563;DHT22;10942;47.894;11.424;2023-05-09T03:06:14;9.20;99.90
21563;DHT22;10942;47.894;11.424;2023-05-09T03:08:40;9.20;99.90
21563;DHT22;10942;47.894;11.424;2023-05-09T03:11:07;9.20;99.90
21563;DHT22;10942;47.894;11.424;2023-05-09T03:13:32;9.20;99.90
21563;DHT22;10942;47.894;11.424;2023-05-09T03:15:58;9.20;99.90
21563;DHT22;10942;47.894;11.424;2023-05-09T03:18:24;9.20;99.90
21563;DHT22;10942;47.894;11.424;2023-05-09T03:20:50;9.10;99.90
21563;DHT22;10942;47.894;11.424;2023-05-09T03:23:16;9.10;99.90
21563;DHT22;10942;47.894;11.424;2023-05-09T03:25:42;9.10;99.90
21563;DHT22;10942;47.894;11.424;2023-05-09T03:28:07;8.90;99.90
21563;DHT22;10942;47.894;11.424;2023-05-09T03:30:33;9.00;99.90
21563;DHT22;10942;47.894;11.424;2023-05-09T03:33:00;9.00;99.90
21563;DHT22;10942;47.894;11.424;2023-05-09T03:35:26;9.00;99.90
21563;DHT22;10942;47.894;11.424;2023-05-09T03:37:52;8.90;99.90
21563;DHT22;10942;47.894;11.424;2023-05-09T03:40:18;9.00;99.90
21563;DHT22;10942;47.894;11.424;2023-05-09T03:42:49;9.00;99.90
21563;DHT22;10942;47.894;11.424;2023-05-09T03:45:15;9.00;99.90
21563;DHT22;10942;47.894;11.424;2023-05-09T03:47:42;9.00;99.90
21563;DHT22;10942;47.894;11.424;2023-05-09T03:52:35;8.80;99.90
21563;DHT22;10942;47.894;11.424;2023-05-09T03:55:02;8.90;99.90
21563;DHT22;10942;47.894;11.424;2023-05-09T03:57:33;8.80;99.90
21563;DHT22;10942;47.894;11.424;2023-05-09T03:59:59;8.60;99.90
21563;DHT22;10942;47.894;11.424;2023-05-09T04:58:54;8.60;99.90
21563;DHT22;10942;47.894;11.424;2023-05-09T05:01:20;10.00;99.90
21563;DHT22;10942;47.894;11.424;2023-05-09T05:03:46;10.00;99.90
21563;DHT22;10942;47.894;11.424;2023-05-09T05:06:12;10.10;99.90
21563;DHT22;10942;47.894;11.424;2023-05-09T05:08:40;10.10;99.90
21563;DHT22;10942;47.894;11.424;2023-05-09T05:11:05;10.20;99.90
21563;DHT22;10942;47.894;11.424;2023-05-09T05:13:31;10.20;99.90
21563;DHT22;10942;47.894;11.424;2023-05-09T05:15:59;10.30;99.90
21563;DHT22;10942;47.894;11.424;2023-05-09T05:18:25;10.40;99.90
21563;DHT22;10942;47.894;11.424;2023-05-09T05:20:51;10.30;99.90
21563;DHT22;10942;47.894;11.424;2023-05-09T05:23:17;10.50;99.90
21563;DHT22;10942;47.894;11.424;2023-05-09T05:25:42;10.60;99.90
21563;DHT22;10942;47.894;11.424;2023-05-09T05:28:09;10.70;99.90
21563;DHT22;10942;47.894;11.424;2023-05-09T05:30:39;10.90;99.90
21563;DHT22;10942;47.894;11.424;2023-05-09T05:33:05;11.00;99.90
21563;DHT22;10942;47.894;11.424;2023-05-09T05:35:30;11.10;99.90
21563;DHT22;10942;47.894;11.424;2023-05-09T05:37:57;11.30;99.90
21563;DHT22;10942;47.894;11.424;2023-05-09T05:40:23;12.00;99.90
21563;DHT22;10942;47.894;11.424;2023-05-09T05:42:51;12.20;99.90
21563;DHT22;10942;47.894;11.424;2023-05-09T05:45:17;12.70;99.90
21563;DHT22;10942;47.894;11.424;2023-05-09T05:47:47;12.90;99.90
21563;DHT22;10942;47.894;11.424;2023-05-09T05:50:12;13.30;99.90
21563;DHT22;10942;47.894;11.424;2023-05-09T06:02:41;13.40;99.90
21563;DHT22;10942;47.894;11.424;2023-05-09T06:07:36;16.20;99.90
21563;DHT22;10942;47.894;11.424;2023-05-09T06:10:02;16.80;99.90
21563;DHT22;10942;47.894;11.424;2023-05-09T06:12:29;17.30;99.90
21563;DHT22;10942;47.894;11.424;2023-05-09T06:14:55;17.20;99.90
21563;DHT22;10942;47.894;11.424;2023-05-09T06:17:21;17.40;99.90
21563;DHT22;10942;47.894;11.424;2023-05-09T06:19:46;17.70;99.90
21563;DHT22;10942;47.894;11.424;2023-05-09T06:24:38;18.10;99.90
21563;DHT22;10942;47.894;11.424;2023-05-09T06:29:30;19.10;99.90
21563;DHT22;10942;47.894;11.424;2023-05-09T06:31:56;18.90;99.90
21563;DHT22;10942;47.894;11.424;2023-05-09T06:34:21;18.80;99.90
21563;DHT22;10942;47.894;11.424;2023-05-09T06:36:47;18.60;99.90
21563;DHT22;10942;47.894;11.424;2023-05-09T06:39:13;18.40;99.90
21563;DHT22;10942;47.894;11.424;2023-05-09T06:41:38;18.20;99.90
21563;DHT22;10942;47.894;11.424;2023-05-09T06:44:04;18.00;99.90
21563;DHT22;10942;47.894;11.424;2023-05-09T06:46:30;18.00;99.90
21563;DHT22;10942;47.894;11.424;2023-05-09T06:48:56;18.20;99.90
21563;DHT22;10942;47.894;11.424;2023-05-09T06:58:43;17.80;99.90
21563;DHT22;10942;47.894;11.424;2023-05-09T07:01:09;17.50;99.90
21563;DHT22;10942;47.894;11.424;2023-05-09T07:16:06;16.90;99.90
21563;DHT22;10942;47.894;11.424;2023-05-09T07:18:32;16.30;99.90
21563;DHT22;10942;47.894;11.424;2023-05-09T07:20:57;16.10;99.90
21563;DHT22;10942;47.894;11.424;2023-05-09T07:23:23;16.50;99.90
21563;DHT22;10942;47.894;11.424;2023-05-09T07:25:57;16.90;99.90
21563;DHT22;10942;47.894;11.424;2023-05-09T07:28:24;17.10;99.90
21563;DHT22;10942;47.894;11.424;2023-05-09T07:30:50;17.60;99.90
21563;DHT22;10942;47.894;11.424;2023-05-09T07:33:16;18.10;99.90
21563;DHT22;10942;47.894;11.424;2023-05-09T07:35:42;18.40;99.90
21563;DHT22;10942;47.894;11.424;2023-05-09T07:38:07;18.40;99.90
21563;DHT22;10942;47.894;11.424;2023-05-09T07:40:33;18.80;99.90
21563;DHT22;10942;47.894;11.424;2023-05-09T07:43:01;18.90;99.90
21563;DHT22;10942;47.894;11.424;2023-05-09T07:45:27;19.20;99.90
21563;DHT22;10942;47.894;11.424;2023-05-09T07:47:52;19.40;99.90
21563;DHT22;10942;47.894;11.424;2023-05-09T07:50:18;18.90;99.90
21563;DHT22;10942;47.894;11.424;2023-05-09T07:52:44;19.10;99.90
21563;DHT22;10942;47.894;11.424;2023-05-09T07:55:09;19.40;99.90
21563;DHT22;10942;47.894;11.424;2023-05-09T07:57:36;19.50;99.90
21563;DHT22;10942;47.894;11.424;2023-05-09T08:00:04;19.50;99.90
21563;DHT22;10942;47.894;11.424;2023-05-09T08:05:05;20.30;99.90
21563;DHT22;10942;47.894;11.424;2023-05-09T08:10:00;23.70;99.90
21563;DHT22;10942;47.894;11.424;2023-05-09T08:12:26;23.40;99.90
21563;DHT22;10942;47.894;11.424;2023-05-09T08:14:51;24.10;99.90
21563;DHT22;10942;47.894;11.424;2023-05-09T08:17:17;24.60;99.90
21563;DHT22;10942;47.894;11.424;2023-05-09T08:19:43;26.40;99.90
21563;DHT22;10942;47.894;11.424;2023-05-09T08:22:08;26.40;99.90
21563;DHT22;10942;47.894;11.424;2023-05-09T08:24:40;27.30;99.90
21563;DHT22;10942;47.894;11.424;2023-05-09T08:29:31;28.40;99.90
21563;DHT22;10942;47.894;11.424;2023-05-09T09:38:18;24.50;99.90
21563;DHT22;10942;47.894;11.424;2023-05-09T09:40:57;24.50;99.90
21563;DHT22;10942;47.894;11.424;2023-05-09T09:43:30;24.40;99.90
21563;DHT22;10942;47.894;11.424;2023-05-09T09:45:56;24.70;99.90
21563;DHT22;10942;47.894;11.424;2023-05-09T09:48:34;25.00;99.90
21563;DHT22;10942;47.894;11.424;2023-05-09T09:51:07;25.20;99.90
21563;DHT22;10942;47.894;11.424;2023-05-09T09:53:41;24.70;99.90
21563;DHT22;10942;47.894;11.424;2023-05-09T09:56:08;24.20;99.90
21563;DHT22;10942;47.894;11.424;2023-05-09T09:58:34;23.30;99.90
21563;DHT22;10942;47.894;11.424;2023-05-09T10:01:04;23.40;99.90
21563;DHT22;10942;47.894;11.424;2023-05-09T10:03:39;23.00;99.90
21563;DHT22;10942;47.894;11.424;2023-05-09T10:06:11;23.00;99.90
21563;DHT22;10942;47.894;11.424;2023-05-09T10:08:41;23.20;99.90
21563;DHT22;10942;47.894;11.424;2023-05-09T10:11:08;23.30;99.90
21563;DHT22;10942;47.894;11.424;2023-05-09T10:13:35;23.20;99.90
21563;DHT22;10942;47.894;11.424;2023-05-09T10:16:02;23.40;99.90
21563;DHT22;10942;47.894;11.424;2023-05-09T10:18:29;22.90;99.90
21563;DHT22;10942;47.894;11.424;2023-05-09T10:20:58;22.80;99.90
21563;DHT22;10942;47.894;11.424;2023-05-09T10:23:29;22.10;99.90
21563;DHT22;10942;47.894;11.424;2023-05-09T10:28:34;22.20;99.90
21563;DHT22;10942;47.894;11.424;2023-05-09T10:31:24;22.00;99.90
21563;DHT22;10942;47.894;11.424;2023-05-09T10:33:51;21.70;99.90
21563;DHT22;10942;47.894;11.424;2023-05-09T10:36:19;21.60;99.90
21563;DHT22;10942;47.894;11.424;2023-05-09T10:38:49;21.60;99.90
21563;DHT22;10942;47.894;11.424;2023-05-09T10:41:16;21.40;99.90
21563;DHT22;10942;47.894;11.424;2023-05-09T10:43:44;21.00;99.90
21563;DHT22;10942;47.894;11.424;2023-05-09T10:46:11;21.10;99.90
21563;DHT22;10942;47.894;11.424;2023-05-09T10:51:03;21.20;99.90
21563;DHT22;10942;47.894;11.424;2023-05-09T10:53:42;21.10;99.90
21563;DHT22;10942;47.894;11.424;2023-05-09T10:56:20;21.40;99.90
21563;DHT22;10942;47.894;11.424;2023-05-09T10:58:46;21.60;99.90
21563;DHT22;10942;47.894;11.424;2023-05-09T11:01:12;21.40;99.90
21563;DHT22;10942;47.894;11.424;2023-05-09T11:03:55;21.40;99.90
21563;DHT22;10942;47.894;11.424;2023-05-09T11:06:40;21.30;99.90
21563;DHT22;10942;47.894;11.424;2023-05-09T11:09:29;21.40;99.90
21563;DHT22;10942;47.894;11.424;2023-05-09T11:14:37;21.30;99.90
21563;DHT22;10942;47.894;11.424;2023-05-09T11:17:05;20.80;99.90
21563;DHT22;10942;47.894;11.424;2023-05-09T11:19:55;20.70;99.90
21563;DHT22;10942;47.894;11.424;2023-05-09T11:22:27;20.70;99.90
21563;DHT22;10942;47.894;11.424;2023-05-09T11:25:05;20.60;99.90
21563;DHT22;10942;47.894;11.424;2023-05-09T11:27:44;20.50;99.90
21563;DHT22;10942;47.894;11.424;2023-05-09T11:30:15;20.60;99.90
21563;DHT22;10942;47.894;11.424;2023-05-09T11:32:59;20.60;99.90
21563;DHT22;10942;47.894;11.424;2023-05-09T11:35:25;20.70;99.90
21563;DHT22;10942;47.894;11.424;2023-05-09T11:38:03;20.80;99.90
21563;DHT22;10942;47.894;11.424;2023-05-09T11:40:30;20.90;99.90
21563;DHT22;10942;47.894;11.424;2023-05-09T11:42:57;20.90;99.90
21563;DHT22;10942;47.894;11.424;2023-05-09T11:45:28;21.10;99.90
21563;DHT22;10942;47.894;11.424;2023-05-09T11:47:54;21.00;99.90
21563;DHT22;10942;47.894;11.424;2023-05-09T11:50:22;21.10;99.90
21563;DHT22;10942;47.894;11.424;2023-05-09T11:52:49;20.90;99.90
21563;DHT22;10942;47.894;11.424;2023-05-09T11:55:19;21.00;99.90
21563;DHT22;10942;47.894;11.424;2023-05-09T11:57:49;21.00;99.90
21563;DHT22;10942;47.894;11.424;2023-05-09T12:00:22;20.80;99.90
21563;DHT22;10942;47.894;11.424;2023-05-09T12:02:49;20.90;99.90
21563;DHT22;10942;47.894;11.424;2023-05-09T12:05:20;20.80;99.90
21563;DHT22;10942;47.894;11.424;2023-05-09T12:07:47;20.70;99.90
21563;DHT22;10942;47.894;11.424;2023-05-09T12:10:15;20.60;99.90
21563;DHT22;10942;47.894;11.424;2023-05-09T12:12:43;20.50;99.90
21563;DHT22;10942;47.894;11.424;2023-05-09T12:15:10;20.50;99.90
21563;DHT22;10942;47.894;11.424;2023-05-09T12:17:38;20.60;99.90
21563;DHT22;10942;47.894;11.424;2023-05-09T12:20:04;20.60;99.90
21563;DHT22;10942;47.894;11.424;2023-05-09T12:22:31;20.70;99.90
21563;DHT22;10942;47.894;11.424;2023-05-09T12:24:59;20.80;99.90
21563;DHT22;10942;47.894;11.424;2023-05-09T12:27:27;20.60;99.90
21563;DHT22;10942;47.894;11.424;2023-05-09T12:29:53;20.70;99.90
21563;DHT22;10942;47.894;11.424;2023-05-09T12:32:20;20.80;99.90
21563;DHT22;10942;47.894;11.424;2023-05-09T12:34:45;20.70;99.90
21563;DHT22;10942;47.894;11.424;2023-05-09T12:37:17;20.70;99.90
21563;DHT22;10942;47.894;11.424;2023-05-09T12:39:45;20.90;99.90
21563;DHT22;10942;47.894;11.424;2023-05-09T12:42:26;20.90;99.90
21563;DHT22;10942;47.894;11.424;2023-05-09T12:44:53;21.00;99.90
21563;DHT22;10942;47.894;11.424;2023-05-09T12:47:19;21.00;99.90
21563;DHT22;10942;47.894;11.424;2023-05-09T12:49:48;20.90;99.90
21563;DHT22;10942;47.894;11.424;2023-05-09T12:52:18;21.00;99.90
21563;DHT22;10942;47.894;11.424;2023-05-09T12:54:45;21.10;99.90
21563;DHT22;10942;47.894;11.424;2023-05-09T12:57:24;21.30;99.90
21563;DHT22;10942;47.894;11.424;2023-05-09T13:00:00;21.10;99.90
21563;DHT22;10942;47.894;11.424;2023-05-09T13:02:26;20.90;99.90
21563;DHT22;10942;47.894;11.424;2023-05-09T13:05:08;20.90;99.90
21563;DHT22;10942;47.894;11.424;2023-05-09T13:07:45;20.80;99.90
21563;DHT22;10942;47.894;11.424;2023-05-09T13:10:18;20.70;99.90
21563;DHT22;10942;47.894;11.424;2023-05-09T13:12:48;20.70;99.90
21563;DHT22;10942;47.894;11.424;2023-05-09T13:15:16;20.60;99.90
21563;DHT22;10942;47.894;11.424;2023-05-09T13:17:46;20.50;99.90
21563;DHT22;10942;47.894;11.424;2023-05-09T13:20:12;20.60;99.90
21563;DHT22;10942;47.894;11.424;2023-05-09T13:22:38;20.60;99.90
21563;DHT22;10942;47.894;11.424;2023-05-09T13:25:04;20.70;99.90
21563;DHT22;10942;47.894;11.424;2023-05-09T13:27:31;20.80;99.90
21563;DHT22;10942;47.894;11.424;2023-05-09T13:29:57;20.80;99.90
21563;DHT22;10942;47.894;11.424;2023-05-09T13:32:22;20.70;99.90
21563;DHT22;10942;47.894;11.424;2023-05-09T13:34:50;20.60;99.90
21563;DHT22;10942;47.894;11.424;2023-05-09T13:37:15;20.60;99.90
21563;DHT22;10942;47.894;11.424;2023-05-09T13:39:41;20.70;99.90
21563;DHT22;10942;47.894;11.424;2023-05-09T13:42:07;20.70;99.90
21563;DHT22;10942;47.894;11.424;2023-05-09T13:44:33;20.70;99.90
21563;DHT22;10942;47.894;11.424;2023-05-09T13:46:58;20.60;99.90
21563;DHT22;10942;47.894;11.424;2023-05-09T13:49:25;20.60;99.90
21563;DHT22;10942;47.894;11.424;2023-05-09T13:51:55;20.60;99.90
21563;DHT22;10942;47.894;11.424;2023-05-09T13:54:20;20.70;99.90
21563;DHT22;10942;47.894;11.424;2023-05-09T13:56:48;20.80;99.90
21563;DHT22;10942;47.894;11.424;2023-05-09T13:59:13;20.90;99.90
21563;DHT22;10942;47.894;11.424;2023-05-09T14:01:39;21.00;99.90
21563;DHT22;10942;47.894;11.424;2023-05-09T14:04:05;21.00;99.90
21563;DHT22;10942;47.894;11.424;2023-05-09T14:06:31;21.10;99.90
21563;DHT22;10942;47.894;11.424;2023-05-09T14:08:58;21.10;99.90
21563;DHT22;10942;47.894;11.424;2023-05-09T14:11:23;21.00;99.90
21563;DHT22;10942;47.894;11.424;2023-05-09T14:13:50;21.10;99.90
21563;DHT22;10942;47.894;11.424;2023-05-09T14:16:18;21.10;99.90
21563;DHT22;10942;47.894;11.424;2023-05-09T14:18:43;21.10;99.90
21563;DHT22;10942;47.894;11.424;2023-05-09T14:21:09;21.00;99.90
21563;DHT22;10942;47.894;11.424;2023-05-09T14:23:35;20.90;99.90
21563;DHT22;10942;47.894;11.424;2023-05-09T14:26:00;20.90;99.90
21563;DHT22;10942;47.894;11.424;2023-05-09T14:28:26;20.80;99.90
21563;DHT22;10942;47.894;11.424;2023-05-09T14:30:52;20.80;99.90
21563;DHT22;10942;47.894;11.424;2023-05-09T14:33:18;20.70;99.90
21563;DHT22;10942;47.894;11.424;2023-05-09T14:35:43;20.60;99.90
21563;DHT22;10942;47.894;11.424;2023-05-09T14:38:09;20.50;99.90
21563;DHT22;10942;47.894;11.424;2023-05-09T14:40:36;20.40;99.90
21563;DHT22;10942;47.894;11.424;2023-05-09T14:43:02;20.40;99.90
21563;DHT22;10942;47.894;11.424;2023-05-09T14:45:28;20.30;99.90
21563;DHT22;10942;47.894;11.424;2023-05-09T14:47:54;20.20;99.90
21563;DHT22;10942;47.894;11.424;2023-05-09T14:50:20;20.20;99.90
21563;DHT22;10942;47.894;11.424;2023-05-09T14:52:48;20.20;99.90
21563;DHT22;10942;47.894;11.424;2023-05-09T14:55:14;20.30;99.90
21563;DHT22;10942;47.894;11.424;2023-05-09T14:57:40;20.20;99.90
21563;DHT22;10942;47.894;11.424;2023-05-09T15:02:32;20.00;99.90
21563;DHT22;10942;47.894;11.424;2023-05-09T15:04:58;20.10;99.90
21563;DHT22;10942;47.894;11.424;2023-05-09T15:07:24;20.20;99.90
21563;DHT22;10942;47.894;11.424;2023-05-09T15:09:49;20.30;99.90
21563;DHT22;10942;47.894;11.424;2023-05-09T15:12:15;20.30;99.90
21563;DHT22;10942;47.894;11.424;2023-05-09T15:14:41;20.30;99.90
21563;DHT22;10942;47.894;11.424;2023-05-09T15:17:07;20.20;99.90
21563;DHT22;10942;47.894;11.424;2023-05-09T15:19:32;20.10;99.90
21563;DHT22;10942;47.894;11.424;2023-05-09T15:22:00;20.10;99.90
21563;DHT22;10942;47.894;11.424;2023-05-09T15:24:26;20.00;99.90
21563;DHT22;10942;47.894;11.424;2023-05-09T15:26:52;20.00;99.90
21563;DHT22;10942;47.894;11.424;2023-05-09T15:29:18;19.90;99.90
21563;DHT22;10942;47.894;11.424;2023-05-09T15:31:46;19.90;99.90
21563;DHT22;10942;47.894;11.424;2023-05-09T15:34:12;19.80;99.90
21563;DHT22;10942;47.894;11.424;2023-05-09T15:36:37;19.70;99.90
21563;DHT22;10942;47.894;11.424;2023-05-09T15:39:03;19.70;99.90
21563;DHT22;10942;47.894;11.424;2023-05-09T15:41:29;19.60;99.90
21563;DHT22;10942;47.894;11.424;2023-05-09T15:43:56;19.60;99.90
21563;DHT22;10942;47.894;11.424;2023-05-09T15:46:22;19.60;99.90
21563;DHT22;10942;47.894;11.424;2023-05-09T15:48:47;19.50;99.90
21563;DHT22;10942;47.894;11.424;2023-05-09T15:51:13;19.50;99.90
21563;DHT22;10942;47.894;11.424;2023-05-09T15:53:39;19.40;99.90
21563;DHT22;10942;47.894;11.424;2023-05-09T15:56:06;19.30;99.90
21563;DHT22;10942;47.894;11.424;2023-05-09T16:00:59;19.10;99.90
21563;DHT22;10942;47.894;11.424;2023-05-09T16:03:25;19.00;99.90
21563;DHT22;10942;47.894;11.424;2023-05-09T16:05:51;19.00;99.90
21563;DHT22;10942;47.894;11.424;2023-05-09T16:08:17;19.10;99.90
21563;DHT22;10942;47.894;11.424;2023-05-09T16:10:43;19.10;99.90
21563;DHT22;10942;47.894;11.424;2023-05-09T16:13:08;19.20;99.90
21563;DHT22;10942;47.894;11.424;2023-05-09T16:15:34;19.20;99.90
21563;DHT22;10942;47.894;11.424;2023-05-09T16:18:00;19.40;99.90
21563;DHT22;10942;47.894;11.424;2023-05-09T16:20:25;19.50;99.90
21563;DHT22;10942;47.894;11.424;2023-05-09T16:22:51;19.50;99.90
21563;DHT22;10942;47.894;11.424;2023-05-09T16:25:17;19.50;99.90
21563;DHT22;10942;47.894;11.424;2023-05-09T16:27:43;19.40;99.90
21563;DHT22;10942;47.894;11.424;2023-05-09T16:30:09;19.40;99.90
21563;DHT22;10942;47.894;11.424;2023-05-09T16:32:35;19.50;99.90
21563;DHT22;10942;47.894;11.424;2023-05-09T16:35:01;19.50;99.90
21563;DHT22;10942;47.894;11.424;2023-05-09T16:37:27;19.50;99.90
21563;DHT22;10942;47.894;11.424;2023-05-09T16:39:54;19.60;99.90
21563;DHT22;10942;47.894;11.424;2023-05-09T16:42:20;19.60;99.90
21563;DHT22;10942;47.894;11.424;2023-05-09T16:44:46;19.60;99.90
21563;DHT22;10942;47.894;11.424;2023-05-09T16:47:12;19.60;99.90
21563;DHT22;10942;47.894;11.424;2023-05-09T16:49:38;19.60;99.90
21563;DHT22;10942;47.894;11.424;2023-05-09T16:52:04;19.60;99.90
21563;DHT22;10942;47.894;11.424;2023-05-09T16:54:30;19.70;99.90
21563;DHT22;10942;47.894;11.424;2023-05-09T16:56:56;19.60;99.90
21563;DHT22;10942;47.894;11.424;2023-05-09T16:59:21;19.60;99.90
21563;DHT22;10942;47.894;11.424;2023-05-09T17:01:47;19.70;99.90
21563;DHT22;10942;47.894;11.424;2023-05-09T17:04:13;19.60;99.90
21563;DHT22;10942;47.894;11.424;2023-05-09T17:06:39;19.50;99.90
21563;DHT22;10942;47.894;11.424;2023-05-09T17:09:05;19.40;99.90
21563;DHT22;10942;47.894;11.424;2023-05-09T17:11:30;19.40;99.90
21563;DHT22;10942;47.894;11.424;2023-05-09T17:13:56;19.20;99.90
21563;DHT22;10942;47.894;11.424;2023-05-09T17:16:22;19.10;99.90
21563;DHT22;10942;47.894;11.424;2023-05-09T17:18:48;19.10;99.90
21563;DHT22;10942;47.894;11.424;2023-05-09T17:21:14;18.90;99.90
21563;DHT22;10942;47.894;11.424;2023-05-09T17:23:40;18.80;99.90
21563;DHT22;10942;47.894;11.424;2023-05-09T17:26:06;18.80;99.90
21563;DHT22;10942;47.894;11.424;2023-05-09T17:28:32;18.80;99.90
21563;DHT22;10942;47.894;11.424;2023-05-09T17:30:58;18.70;99.90
21563;DHT22;10942;47.894;11.424;2023-05-09T17:33:26;18.60;99.90
21563;DHT22;10942;47.894;11.424;2023-05-09T17:35:52;18.50;99.90
21563;DHT22;10942;47.894;11.424;2023-05-09T17:38:18;18.30;99.90
21563;DHT22;10942;47.894;11.424;2023-05-09T17:40:44;18.40;99.90
21563;DHT22;10942;47.894;11.424;2023-05-09T17:43:10;18.30;99.90
21563;DHT22;10942;47.894;11.424;2023-05-09T17:45:37;18.20;99.90
21563;DHT22;10942;47.894;11.424;2023-05-09T17:48:03;18.20;99.90
21563;DHT22;10942;47.894;11.424;2023-05-09T17:50:29;18.20;99.90
21563;DHT22;10942;47.894;11.424;2023-05-09T17:52:55;18.20;99.90
21563;DHT22;10942;47.894;11.424;2023-05-09T17:55:21;18.10;99.90
21563;DHT22;10942;47.894;11.424;2023-05-09T17:57:47;18.00;99.90
21563;DHT22;10942;47.894;11.424;2023-05-09T18:02:39;17.80;99.90
21563;DHT22;10942;47.894;11.424;2023-05-09T18:07:34;17.60;99.90
21563;DHT22;10942;47.894;11.424;2023-05-09T18:10:00;17.70;99.90
21563;DHT22;10942;47.894;11.424;2023-05-09T18:12:26;17.70;99.90
21563;DHT22;10942;47.894;11.424;2023-05-09T18:14:53;17.60;99.90
21563;DHT22;10942;47.894;11.424;2023-05-09T18:17:20;17.60;99.90
21563;DHT22;10942;47.894;11.424;2023-05-09T18:19:46;17.40;99.90
21563;DHT22;10942;47.894;11.424;2023-05-09T18:22:12;17.50;99.90
21563;DHT22;10942;47.894;11.424;2023-05-09T18:24:39;17.50;99.90
21563;DHT22;10942;47.894;11.424;2023-05-09T18:27:05;17.40;99.90
21563;DHT22;10942;47.894;11.424;2023-05-09T18:29:31;17.50;99.90
21563;DHT22;10942;47.894;11.424;2023-05-09T18:31:56;17.30;99.90
21563;DHT22;10942;47.894;11.424;2023-05-09T18:34:22;17.30;99.90
21563;DHT22;10942;47.894;11.424;2023-05-09T18:36:48;17.30;99.90
21563;DHT22;10942;47.894;11.424;2023-05-09T18:39:14;17.20;99.90
21563;DHT22;10942;47.894;11.424;2023-05-09T18:41:41;17.20;99.90
21563;DHT22;10942;47.894;11.424;2023-05-09T18:44:06;17.10;99.90
21563;DHT22;10942;47.894;11.424;2023-05-09T18:46:33;17.10;99.90
21563;DHT22;10942;47.894;11.424;2023-05-09T18:48:58;17.00;99.90
21563;DHT22;10942;47.894;11.424;2023-05-09T18:51:25;17.00;99.90
21563;DHT22;10942;47.894;11.424;2023-05-09T18:53:51;17.00;99.90
21563;DHT22;10942;47.894;11.424;2023-05-09T18:56:17;17.00;99.90
21563;DHT22;10942;47.894;11.424;2023-05-09T18:58:44;17.00;99.90
21563;DHT22;10942;47.894;11.424;2023-05-09T19:01:11;17.00;99.90
21563;DHT22;10942;47.894;11.424;2023-05-09T19:03:37;17.00;99.90
21563;DHT22;10942;47.894;11.424;2023-05-09T19:06:13;17.00;99.90
21563;DHT22;10942;47.894;11.424;2023-05-09T19:08:40;16.90;99.90
21563;DHT22;10942;47.894;11.424;2023-05-09T19:11:06;16.80;99.90
21563;DHT22;10942;47.894;11.424;2023-05-09T19:13:32;16.80;99.90
21563;DHT22;10942;47.894;11.424;2023-05-09T19:16:03;16.80;99.90
21563;DHT22;10942;47.894;11.424;2023-05-09T19:18:28;16.80;99.90
21563;DHT22;10942;47.894;11.424;2023-05-09T19:20:56;16.80;99.90
21563;DHT22;10942;47.894;11.424;2023-05-09T19:25:51;16.70;99.90
21563;DHT22;10942;47.894;11.424;2023-05-09T19:28:18;16.70;99.90
21563;DHT22;10942;47.894;11.424;2023-05-09T19:30:44;16.80;99.90